sensor_id;sensor_type;location;lat;lon;timestamp;pressure;altitude;pressure_sealevel;temperature;humidity
51031;BME280;37058;41.442;23.240;2023-05-16T00:00:29;100075.44;;;15.48;98.09
51031;BME280;37058;41.442;23.240;2023-05-16T00:03:03;100077.38;;;15.47;98.66
51031;BME280;37058;41.442;23.240;2023-05-16T00:05:29;100069.94;;;15.48;98.53
51031;BME280;37058;41.442;23.240;2023-05-16T00:07:55;100066.59;;;15.51;98.29
51031;BME280;37058;41.442;23.240;2023-05-16T00:10:21;100060.19;;;15.55;97.43
51031;BME280;37058;41.442;23.240;2023-05-16T00:12:47;100051.06;;;15.60;96.75
51031;BME280;37058;41.442;23.240;2023-05-16T00:15:17;100053.81;;;15.60;96.40
51031;BME280;37058;41.442;23.240;2023-05-16T00:17:45;100057.66;;;15.59;96.08
51031;BME280;37058;41.442;23.240;2023-05-16T00:20:12;100050.75;;;15.61;95.38
51031;BME280;37058;41.442;23.240;2023-05-16T00:22:39;100045.31;;;15.56;95.82
51031;BME280;37058;41.442;23.240;2023-05-16T00:25:06;100034.09;;;15.53;96.05
51031;BME280;37058;41.442;23.240;2023-05-16T00:27:34;100026.88;;;15.57;95.81
51031;BME280;37058;41.442;23.240;2023-05-16T00:30:04;100026.03;;;15.56;95.86
51031;BME280;37058;41.442;23.240;2023-05-16T00:32:31;100021.66;;;15.55;95.44
51031;BME280;37058;41.442;23.240;2023-05-16T00:34:57;100014.81;;;15.53;96.07
51031;BME280;37058;41.442;23.240;2023-05-16T00:37:23;100007.91;;;15.55;95.77
51031;BME280;37058;41.442;23.240;2023-05-16T00:39:49;100009.53;;;15.56;95.65
51031;BME280;37058;41.442;23.240;2023-05-16T00:42:14;100014.16;;;15.61;95.38
51031;BME280;37058;41.442;23.240;2023-05-16T00:44:41;100021.06;;;15.58;95.18
51031;BME280;37058;41.442;23.240;2023-05-16T00:47:07;100011.19;;;15.57;94.89
51031;BME280;37058;41.442;23.240;2023-05-16T00:49:33;100007.09;;;15.55;95.11
51031;BME280;37058;41.442;23.240;2023-05-16T00:51:58;100001.88;;;15.53;95.07
51031;BME280;37058;41.442;23.240;2023-05-16T00:54:25;99993.41;;;15.50;95.41
51031;BME280;37058;41.442;23.240;2023-05-16T00:56:54;99994.22;;;15.50;95.34
51031;BME280;37058;41.442;23.240;2023-05-16T00:59:22;99979.31;;;15.51;95.33
51031;BME280;37058;41.442;23.240;2023-05-16T01:01:48;99971.38;;;15.50;95.90
51031;BME280;37058;41.442;23.240;2023-05-16T01:04:16;99974.41;;;15.48;95.28
51031;BME280;37058;41.442;23.240;2023-05-16T01:06:43;99968.03;;;15.53;94.90
51031;BME280;37058;41.442;23.240;2023-05-16T01:09:09;99963.63;;;15.52;94.94
51031;BME280;37058;41.442;23.240;2023-05-16T01:15:07;99961.25;;;15.45;95.48
51031;BME280;37058;41.442;23.240;2023-05-16T01:18:27;99956.34;;;15.42;96.00
51031;BME280;37058;41.442;23.240;2023-05-16T01:20:59;99951.41;;;15.39;96.30
51031;BME280;37058;41.442;23.240;2023-05-16T01:24:02;99950.91;;;15.37;96.89
51031;BME280;37058;41.442;23.240;2023-05-16T01:26:29;99946.22;;;15.37;97.36
51031;BME280;37058;41.442;23.240;2023-05-16T01:28:57;99940.47;;;15.34;97.34
51031;BME280;37058;41.442;23.240;2023-05-16T01:31:23;99938.66;;;15.29;97.68
51031;BME280;37058;41.442;23.240;2023-05-16T01:33:49;99950.16;;;15.31;97.06
51031;BME280;37058;41.442;23.240;2023-05-16T01:39:43;99948.53;;;15.30;97.59
51031;BME280;37058;41.442;23.240;2023-05-16T01:42:13;99953.50;;;15.28;97.61
51031;BME280;37058;41.442;23.240;2023-05-16T01:45:11;99938.13;;;15.27;97.28
51031;BME280;37058;41.442;23.240;2023-05-16T01:47:41;99935.13;;;15.24;97.01
51031;BME280;37058;41.442;23.240;2023-05-16T01:50:16;99936.53;;;15.21;96.99
51031;BME280;37058;41.442;23.240;2023-05-16T01:52:57;99929.41;;;15.20;96.90
51031;BME280;37058;41.442;23.240;2023-05-16T01:55:41;99922.25;;;15.19;97.07
51031;BME280;37058;41.442;23.240;2023-05-16T01:58:09;99918.47;;;15.15;97.32
51031;BME280;37058;41.442;23.240;2023-05-16T02:00:36;99919.34;;;15.10;97.38
51031;BME280;37058;41.442;23.240;2023-05-16T02:03:01;99918.59;;;15.05;97.10
51031;BME280;37058;41.442;23.240;2023-05-16T02:05:27;99918.59;;;15.05;96.56
51031;BME280;37058;41.442;23.240;2023-05-16T02:07:53;99919.19;;;15.02;97.01
51031;BME280;37058;41.442;23.240;2023-05-16T02:10:19;99918.06;;;15.03;97.17
51031;BME280;37058;41.442;23.240;2023-05-16T02:12:45;99920.81;;;15.03;97.25
51031;BME280;37058;41.442;23.240;2023-05-16T02:15:11;99917.84;;;14.99;97.78
51031;BME280;37058;41.442;23.240;2023-05-16T02:17:38;99921.69;;;14.98;97.80
51031;BME280;37058;41.442;23.240;2023-05-16T02:20:05;99919.31;;;14.91;98.58
51031;BME280;37058;41.442;23.240;2023-05-16T02:22:34;99922.06;;;14.91;98.96
51031;BME280;37058;41.442;23.240;2023-05-16T02:25:02;99916.31;;;14.88;99.05
51031;BME280;37058;41.442;23.240;2023-05-16T02:27:28;99913.88;;;14.86;99.75
51031;BME280;37058;41.442;23.240;2023-05-16T02:29:54;99894.94;;;14.85;99.78
51031;BME280;37058;41.442;23.240;2023-05-16T02:32:20;99900.19;;;14.81;99.98
51031;BME280;37058;41.442;23.240;2023-05-16T02:34:46;99896.59;;;14.81;100.00
51031;BME280;37058;41.442;23.240;2023-05-16T02:37:12;99886.47;;;14.81;100.00
51031;BME280;37058;41.442;23.240;2023-05-16T02:39:38;99887.56;;;14.80;100.00
51031;BME280;37058;41.442;23.240;2023-05-16T02:42:05;99880.44;;;14.79;100.00
51031;BME280;37058;41.442;23.240;2023-05-16T02:44:31;99878.50;;;14.80;100.00
51031;BME280;37058;41.442;23.240;2023-05-16T02:46:57;99875.22;;;14.78;100.00
51031;BME280;37058;41.442;23.240;2023-05-16T02:49:23;99883.75;;;14.76;100.00
51031;BME280;37058;41.442;23.240;2023-05-16T02:51:49;99891.53;;;14.69;100.00
51031;BME280;37058;41.442;23.240;2023-05-16T02:54:15;99900.06;;;14.67;100.00
51031;BME280;37058;41.442;23.240;2023-05-16T02:56:41;99879.50;;;14.65;100.00
51031;BME280;37058;41.442;23.240;2023-05-16T02:59:07;99876.22;;;14.63;100.00
51031;BME280;37058;41.442;23.240;2023-05-16T03:01:33;99873.31;;;14.54;100.00
51031;BME280;37058;41.442;23.240;2023-05-16T03:03:59;99876.28;;;14.58;100.00
51031;BME280;37058;41.442;23.240;2023-05-16T03:06:25;99880.94;;;14.57;100.00
51031;BME280;37058;41.442;23.240;2023-05-16T03:08:51;99884.00;;;14.50;100.00
51031;BME280;37058;41.442;23.240;2023-05-16T03:11:17;99884.59;;;14.47;100.00
51031;BME280;37058;41.442;23.240;2023-05-16T03:13:47;99871.16;;;14.46;100.00
51031;BME280;37058;41.442;23.240;2023-05-16T03:16:13;99867.31;;;14.47;100.00
51031;BME280;37058;41.442;23.240;2023-05-16T03:18:40;99870.84;;;14.47;100.00
51031;BME280;37058;41.442;23.240;2023-05-16T03:21:06;99878.28;;;14.47;100.00
51031;BME280;37058;41.442;23.240;2023-05-16T03:23:32;99887.88;;;14.49;100.00
51031;BME280;37058;41.442;23.240;2023-05-16T03:25:58;99885.66;;;14.51;100.00
51031;BME280;37058;41.442;23.240;2023-05-16T03:28:25;99882.63;;;14.53;100.00
51031;BME280;37058;41.442;23.240;2023-05-16T03:30:51;99889.72;;;14.59;100.00
51031;BME280;37058;41.442;23.240;2023-05-16T03:33:17;99894.91;;;14.61;100.00
51031;BME280;37058;41.442;23.240;2023-05-16T03:35:44;99895.97;;;14.65;100.00
51031;BME280;37058;41.442;23.240;2023-05-16T03:38:11;99888.28;;;14.67;100.00
51031;BME280;37058;41.442;23.240;2023-05-16T03:40:37;99892.06;;;14.71;100.00
51031;BME280;37058;41.442;23.240;2023-05-16T03:43:02;99887.69;;;14.70;100.00
51031;BME280;37058;41.442;23.240;2023-05-16T03:45:31;99885.75;;;14.70;100.00
51031;BME280;37058;41.442;23.240;2023-05-16T03:47:57;99875.88;;;14.69;100.00
51031;BME280;37058;41.442;23.240;2023-05-16T03:50:23;99871.72;;;14.72;100.00
51031;BME280;37058;41.442;23.240;2023-05-16T03:52:50;99863.94;;;14.79;100.00
51031;BME280;37058;41.442;23.240;2023-05-16T03:55:17;99873.28;;;14.78;100.00
51031;BME280;37058;41.442;23.240;2023-05-16T03:57:43;99870.13;;;14.66;100.00
51031;BME280;37058;41.442;23.240;2023-05-16T04:00:10;99866.63;;;14.60;100.00
51031;BME280;37058;41.442;23.240;2023-05-16T04:02:40;99874.06;;;14.60;100.00
51031;BME280;37058;41.442;23.240;2023-05-16T04:05:10;99875.94;;;14.64;100.00
51031;BME280;37058;41.442;23.240;2023-05-16T04:07:36;99883.31;;;14.69;100.00
51031;BME280;37058;41.442;23.240;2023-05-16T04:10:06;99885.16;;;14.73;100.00
51031;BME280;37058;41.442;23.240;2023-05-16T04:12:32;99882.66;;;14.77;100.00
51031;BME280;37058;41.442;23.240;2023-05-16T04:14:58;99893.06;;;14.80;100.00
51031;BME280;37058;41.442;23.240;2023-05-16T04:17:25;99891.66;;;14.83;100.00
51031;BME280;37058;41.442;23.240;2023-05-16T04:19:50;99889.16;;;14.86;100.00
51031;BME280;37058;41.442;23.240;2023-05-16T04:22:16;99894.66;;;14.86;100.00
51031;BME280;37058;41.442;23.240;2023-05-16T04:24:42;99900.19;;;14.81;100.00
51031;BME280;37058;41.442;23.240;2023-05-16T04:27:08;99901.00;;;14.82;100.00
51031;BME280;37058;41.442;23.240;2023-05-16T04:29:35;99895.22;;;14.83;100.00
51031;BME280;37058;41.442;23.240;2023-05-16T04:32:01;99900.13;;;14.86;100.00
51031;BME280;37058;41.442;23.240;2023-05-16T04:34:27;99890.25;;;14.85;100.00
51031;BME280;37058;41.442;23.240;2023-05-16T04:36:53;99889.38;;;14.90;100.00
51031;BME280;37058;41.442;23.240;2023-05-16T04:39:20;99889.00;;;14.97;100.00
51031;BME280;37058;41.442;23.240;2023-05-16T04:41:45;99889.28;;;14.95;100.00
51031;BME280;37058;41.442;23.240;2023-05-16T04:44:11;99897.47;;;15.00;100.00
51031;BME280;37058;41.442;23.240;2023-05-16T04:46:37;99889.44;;;15.04;100.00
51031;BME280;37058;41.442;23.240;2023-05-16T04:49:03;99896.53;;;15.10;100.00
51031;BME280;37058;41.442;23.240;2023-05-16T04:51:29;99891.56;;;15.12;100.00
51031;BME280;37058;41.442;23.240;2023-05-16T04:53:57;99884.94;;;15.13;100.00
51031;BME280;37058;41.442;23.240;2023-05-16T04:56:22;99878.31;;;15.14;100.00
51031;BME280;37058;41.442;23.240;2023-05-16T04:58:48;99884.94;;;15.13;100.00
51031;BME280;37058;41.442;23.240;2023-05-16T05:01:14;99880.84;;;15.10;100.00
51031;BME280;37058;41.442;23.240;2023-05-16T05:03:40;99885.00;;;15.08;100.00
51031;BME280;37058;41.442;23.240;2023-05-16T05:06:06;99881.97;;;15.09;100.00
51031;BME280;37058;41.442;23.240;2023-05-16T05:08:32;99878.91;;;15.11;100.00
51031;BME280;37058;41.442;23.240;2023-05-16T05:10:57;99885.53;;;15.10;100.00
51031;BME280;37058;41.442;23.240;2023-05-16T05:13:24;99873.94;;;15.13;100.00
51031;BME280;37058;41.442;23.240;2023-05-16T05:15:49;99865.91;;;15.16;100.00
51031;BME280;37058;41.442;23.240;2023-05-16T05:18:17;99858.09;;;15.24;100.00
51031;BME280;37058;41.442;23.240;2023-05-16T05:20:43;99854.31;;;15.20;100.00
51031;BME280;37058;41.442;23.240;2023-05-16T05:23:09;99850.81;;;15.14;100.00
51031;BME280;37058;41.442;23.240;2023-05-16T05:25:35;99848.06;;;15.14;100.00
51031;BME280;37058;41.442;23.240;2023-05-16T05:28:01;99862.13;;;15.12;100.00
51031;BME280;37058;41.442;23.240;2023-05-16T05:30:27;99876.97;;;15.11;100.00
51031;BME280;37058;41.442;23.240;2023-05-16T05:32:53;99874.75;;;15.13;100.00
51031;BME280;37058;41.442;23.240;2023-05-16T05:35:19;99879.66;;;15.16;100.00
51031;BME280;37058;41.442;23.240;2023-05-16T05:37:45;99877.88;;;15.26;100.00
51031;BME280;37058;41.442;23.240;2023-05-16T05:40:13;99883.31;;;15.31;100.00
51031;BME280;37058;41.442;23.240;2023-05-16T05:42:38;99894.97;;;15.42;100.00
51031;BME280;37058;41.442;23.240;2023-05-16T05:45:05;99900.41;;;15.47;100.00
51031;BME280;37058;41.442;23.240;2023-05-16T05:47:31;99886.88;;;15.50;100.00
51031;BME280;37058;41.442;23.240;2023-05-16T05:49:58;99868.06;;;15.57;100.00
51031;BME280;37058;41.442;23.240;2023-05-16T05:52:24;99864.78;;;15.55;100.00
51031;BME280;37058;41.442;23.240;2023-05-16T05:54:50;99863.28;;;15.63;100.00
51031;BME280;37058;41.442;23.240;2023-05-16T05:57:16;99862.13;;;15.69;99.44
51031;BME280;37058;41.442;23.240;2023-05-16T05:59:42;99873.03;;;15.74;99.24
51031;BME280;37058;41.442;23.240;2023-05-16T06:02:08;99881.22;;;15.79;98.15
51031;BME280;37058;41.442;23.240;2023-05-16T06:04:34;99862.91;;;15.89;97.06
51031;BME280;37058;41.442;23.240;2023-05-16T06:06:59;99861.09;;;15.98;97.15
51031;BME280;37058;41.442;23.240;2023-05-16T06:09:25;99864.34;;;16.00;96.37
51031;BME280;37058;41.442;23.240;2023-05-16T06:11:51;99873.13;;;16.02;96.70
51031;BME280;37058;41.442;23.240;2023-05-16T06:14:17;99859.25;;;16.07;96.40
51031;BME280;37058;41.442;23.240;2023-05-16T06:16:43;99860.72;;;16.18;95.53
51031;BME280;37058;41.442;23.240;2023-05-16T06:19:09;99856.66;;;16.30;94.64
51031;BME280;37058;41.442;23.240;2023-05-16T06:21:36;99863.31;;;16.29;95.26
51031;BME280;37058;41.442;23.240;2023-05-16T06:24:02;99857.06;;;16.37;95.08
51031;BME280;37058;41.442;23.240;2023-05-16T06:26:28;99843.00;;;16.38;96.24
51031;BME280;37058;41.442;23.240;2023-05-16T06:28:54;99839.94;;;16.40;96.17
51031;BME280;37058;41.442;23.240;2023-05-16T06:31:20;99832.69;;;16.44;96.81
51031;BME280;37058;41.442;23.240;2023-05-16T06:33:46;99839.09;;;16.53;97.72
51031;BME280;37058;41.442;23.240;2023-05-16T06:36:12;99831.75;;;16.62;98.87
51031;BME280;37058;41.442;23.240;2023-05-16T06:38:37;99824.53;;;16.66;98.11
51031;BME280;37058;41.442;23.240;2023-05-16T06:41:03;99817.69;;;16.78;96.74
51031;BME280;37058;41.442;23.240;2023-05-16T06:43:29;99798.47;;;16.86;96.04
51031;BME280;37058;41.442;23.240;2023-05-16T06:45:55;99794.34;;;16.98;94.63
51031;BME280;37058;41.442;23.240;2023-05-16T06:48:21;99801.66;;;17.16;95.47
51031;BME280;37058;41.442;23.240;2023-05-16T06:50:50;99798.53;;;17.31;93.93
51031;BME280;37058;41.442;23.240;2023-05-16T06:53:17;99793.28;;;17.44;90.82
51031;BME280;37058;41.442;23.240;2023-05-16T06:55:43;99810.91;;;17.57;90.58
51031;BME280;37058;41.442;23.240;2023-05-16T06:58:10;99807.97;;;17.75;91.77
51031;BME280;37058;41.442;23.240;2023-05-16T07:00:35;99817.84;;;17.90;89.79
51031;BME280;37058;41.442;23.240;2023-05-16T07:03:02;99806.19;;;18.02;88.91
51031;BME280;37058;41.442;23.240;2023-05-16T07:05:28;99799.69;;;18.07;88.08
51031;BME280;37058;41.442;23.240;2023-05-16T07:07:54;99800.38;;;18.12;87.75
51031;BME280;37058;41.442;23.240;2023-05-16T07:10:20;99795.22;;;18.19;87.94
51031;BME280;37058;41.442;23.240;2023-05-16T07:12:46;99787.41;;;18.22;87.84
51031;BME280;37058;41.442;23.240;2023-05-16T07:15:13;99775.34;;;18.17;87.14
51031;BME280;37058;41.442;23.240;2023-05-16T07:17:39;99767.56;;;18.19;85.75
51031;BME280;37058;41.442;23.240;2023-05-16T07:20:06;99784.00;;;18.25;85.42
51031;BME280;37058;41.442;23.240;2023-05-16T07:22:32;99793.47;;;18.32;85.60
51031;BME280;37058;41.442;23.240;2023-05-16T07:24:58;99792.06;;;18.44;86.27
51031;BME280;37058;41.442;23.240;2023-05-16T07:27:26;99796.16;;;18.55;82.25
51031;BME280;37058;41.442;23.240;2023-05-16T07:29:52;99807.41;;;18.67;82.90
51031;BME280;37058;41.442;23.240;2023-05-16T07:32:18;99807.13;;;18.77;83.64
51031;BME280;37058;41.442;23.240;2023-05-16T07:34:45;99813.66;;;18.81;80.86
51031;BME280;37058;41.442;23.240;2023-05-16T07:37:10;99819.81;;;18.78;80.00
51031;BME280;37058;41.442;23.240;2023-05-16T07:39:41;99828.25;;;18.73;78.37
51031;BME280;37058;41.442;23.240;2023-05-16T07:42:07;99828.25;;;18.73;79.54
51031;BME280;37058;41.442;23.240;2023-05-16T07:44:34;99820.28;;;18.72;78.36
51031;BME280;37058;41.442;23.240;2023-05-16T07:47:00;99825.78;;;18.63;79.85
51031;BME280;37058;41.442;23.240;2023-05-16T07:49:26;99820.88;;;18.60;80.01
51031;BME280;37058;41.442;23.240;2023-05-16T07:51:52;99835.66;;;18.55;80.65
51031;BME280;37058;41.442;23.240;2023-05-16T07:54:18;99835.38;;;18.57;80.65
51031;BME280;37058;41.442;23.240;2023-05-16T07:56:44;99833.72;;;18.56;81.53
51031;BME280;37058;41.442;23.240;2023-05-16T07:59:09;99848.88;;;18.58;81.51
51031;BME280;37058;41.442;23.240;2023-05-16T08:01:36;99845.41;;;18.53;81.72
51031;BME280;37058;41.442;23.240;2023-05-16T08:04:02;99844.09;;;18.50;83.26
51031;BME280;37058;41.442;23.240;2023-05-16T08:06:27;99843.75;;;18.43;83.40
51031;BME280;37058;41.442;23.240;2023-05-16T08:08:54;99839.06;;;18.44;84.12
51031;BME280;37058;41.442;23.240;2023-05-16T08:11:21;99850.13;;;18.44;83.58
51031;BME280;37058;41.442;23.240;2023-05-16T08:13:50;99847.81;;;18.46;82.59
51031;BME280;37058;41.442;23.240;2023-05-16T08:16:16;99839.72;;;18.49;80.93
51031;BME280;37058;41.442;23.240;2023-05-16T08:18:42;99839.59;;;18.54;79.47
51031;BME280;37058;41.442;23.240;2023-05-16T08:21:08;99836.03;;;18.62;79.18
51031;BME280;37058;41.442;23.240;2023-05-16T08:23:34;99835.94;;;18.76;77.75
51031;BME280;37058;41.442;23.240;2023-05-16T08:26:01;99831.72;;;18.88;76.48
51031;BME280;37058;41.442;23.240;2023-05-16T08:28:28;99829.81;;;18.97;74.07
51031;BME280;37058;41.442;23.240;2023-05-16T08:30:54;99823.16;;;19.07;75.17
51031;BME280;37058;41.442;23.240;2023-05-16T08:33:20;99827.38;;;19.13;76.56
51031;BME280;37058;41.442;23.240;2023-05-16T08:35:45;99826.56;;;19.21;77.50
51031;BME280;37058;41.442;23.240;2023-05-16T08:38:13;99824.94;;;19.28;78.22
51031;BME280;37058;41.442;23.240;2023-05-16T08:40:39;99822.00;;;19.34;78.53
51031;BME280;37058;41.442;23.240;2023-05-16T08:43:05;99813.03;;;19.37;77.52
51031;BME280;37058;41.442;23.240;2023-05-16T08:45:31;99813.22;;;19.40;76.71
51031;BME280;37058;41.442;23.240;2023-05-16T08:48:00;99800.81;;;19.46;76.68
51031;BME280;37058;41.442;23.240;2023-05-16T08:50:31;99777.19;;;19.49;75.02
51031;BME280;37058;41.442;23.240;2023-05-16T08:52:57;99786.00;;;19.51;74.86
51031;BME280;37058;41.442;23.240;2023-05-16T08:55:31;99801.00;;;19.50;74.01
51031;BME280;37058;41.442;23.240;2023-05-16T08:57:57;99799.69;;;19.56;73.69
51031;BME280;37058;41.442;23.240;2023-05-16T09:00:24;99803.78;;;19.67;73.18
51031;BME280;37058;41.442;23.240;2023-05-16T09:02:51;99800.00;;;19.81;74.22
51031;BME280;37058;41.442;23.240;2023-05-16T09:05:22;99813.34;;;19.96;74.08
51031;BME280;37058;41.442;23.240;2023-05-16T09:07:48;99815.56;;;20.11;74.24
51031;BME280;37058;41.442;23.240;2023-05-16T09:10:15;99814.88;;;20.23;70.61
51031;BME280;37058;41.442;23.240;2023-05-16T09:12:41;99805.53;;;20.28;69.99
51031;BME280;37058;41.442;23.240;2023-05-16T09:15:08;99810.59;;;20.34;68.08
51031;BME280;37058;41.442;23.240;2023-05-16T09:17:37;99811.22;;;20.40;67.65
51031;BME280;37058;41.442;23.240;2023-05-16T09:20:14;99826.03;;;20.44;70.13
51031;BME280;37058;41.442;23.240;2023-05-16T09:22:58;99824.06;;;20.45;70.28
51031;BME280;37058;41.442;23.240;2023-05-16T09:25:27;99828.00;;;20.44;69.83
51031;BME280;37058;41.442;23.240;2023-05-16T09:27:58;99838.75;;;20.45;70.45
51031;BME280;37058;41.442;23.240;2023-05-16T09:30:32;99828.34;;;20.42;69.90
51031;BME280;37058;41.442;23.240;2023-05-16T09:32:58;99826.22;;;20.39;69.84
51031;BME280;37058;41.442;23.240;2023-05-16T09:35:24;99812.19;;;20.35;71.56
51031;BME280;37058;41.442;23.240;2023-05-16T09:37:50;99806.03;;;20.30;70.81
51031;BME280;37058;41.442;23.240;2023-05-16T09:40:21;99805.53;;;20.28;72.52
51031;BME280;37058;41.442;23.240;2023-05-16T09:43:14;99796.78;;;20.26;72.74
51031;BME280;37058;41.442;23.240;2023-05-16T09:45:46;99803.44;;;20.25;72.77
51031;BME280;37058;41.442;23.240;2023-05-16T09:48:14;99807.69;;;20.22;72.65
51031;BME280;37058;41.442;23.240;2023-05-16T09:50:47;99802.16;;;20.22;72.52
51031;BME280;37058;41.442;23.240;2023-05-16T09:53:17;99806.88;;;20.22;73.77
51031;BME280;37058;41.442;23.240;2023-05-16T09:55:43;99799.06;;;20.24;73.13
51031;BME280;37058;41.442;23.240;2023-05-16T09:58:09;99793.50;;;20.24;72.65
51031;BME280;37058;41.442;23.240;2023-05-16T10:00:35;99787.63;;;20.25;71.77
51031;BME280;37058;41.442;23.240;2023-05-16T10:03:02;99798.88;;;20.29;71.46
51031;BME280;37058;41.442;23.240;2023-05-16T10:05:30;99800.97;;;20.32;71.50
51031;BME280;37058;41.442;23.240;2023-05-16T10:07:56;99803.75;;;20.32;70.02
51031;BME280;37058;41.442;23.240;2023-05-16T10:10:23;99800.16;;;20.31;70.99
51031;BME280;37058;41.442;23.240;2023-05-16T10:12:51;99807.50;;;20.27;71.35
51031;BME280;37058;41.442;23.240;2023-05-16T10:15:17;99814.22;;;20.26;72.69
51031;BME280;37058;41.442;23.240;2023-05-16T10:17:47;99815.19;;;20.22;70.24
51031;BME280;37058;41.442;23.240;2023-05-16T10:20:16;99817.00;;;20.18;69.71
51031;BME280;37058;41.442;23.240;2023-05-16T10:22:43;99825.31;;;20.18;70.74
51031;BME280;37058;41.442;23.240;2023-05-16T10:25:31;99819.78;;;20.18;71.26
51031;BME280;37058;41.442;23.240;2023-05-16T10:27:58;99819.31;;;20.16;71.06
51031;BME280;37058;41.442;23.240;2023-05-16T10:30:25;99816.53;;;20.16;72.18
51031;BME280;37058;41.442;23.240;2023-05-16T10:32:52;99827.94;;;20.14;72.89
51031;BME280;37058;41.442;23.240;2023-05-16T10:35:20;99820.13;;;20.16;70.25
51031;BME280;37058;41.442;23.240;2023-05-16T10:37:47;99813.78;;;20.16;70.89
51031;BME280;37058;41.442;23.240;2023-05-16T10:40:14;99795.97;;;20.17;71.80
51031;BME280;37058;41.442;23.240;2023-05-16T10:42:56;99787.34;;;20.18;72.06
51031;BME280;37058;41.442;23.240;2023-05-16T10:45:22;99792.22;;;20.21;73.19
51031;BME280;37058;41.442;23.240;2023-05-16T10:53:28;99777.00;;;20.27;74.74
51031;BME280;37058;41.442;23.240;2023-05-16T11:17:22;99793.94;;;19.96;76.50
51031;BME280;37058;41.442;23.240;2023-05-16T11:19:51;99790.66;;;19.94;76.63
51031;BME280;37058;41.442;23.240;2023-05-16T11:25:08;99790.19;;;19.92;77.57
51031;BME280;37058;41.442;23.240;2023-05-16T11:27:47;99797.81;;;19.95;76.17
51031;BME280;37058;41.442;23.240;2023-05-16T11:30:15;99810.56;;;19.96;76.62
51031;BME280;37058;41.442;23.240;2023-05-16T11:32:47;99815.44;;;19.99;78.05
51031;BME280;37058;41.442;23.240;2023-05-16T11:35:15;99803.19;;;20.00;77.76
51031;BME280;37058;41.442;23.240;2023-05-16T11:37:42;99801.41;;;20.04;77.53
51031;BME280;37058;41.442;23.240;2023-05-16T11:40:11;99788.69;;;20.03;77.33
51031;BME280;37058;41.442;23.240;2023-05-16T11:42:44;99788.69;;;20.03;77.36
51031;BME280;37058;41.442;23.240;2023-05-16T11:45:13;99794.88;;;20.00;77.42
51031;BME280;37058;41.442;23.240;2023-05-16T11:47:41;99810.06;;;20.03;77.96
51031;BME280;37058;41.442;23.240;2023-05-16T11:50:12;99823.09;;;20.02;77.53
51031;BME280;37058;41.442;23.240;2023-05-16T11:52:39;99814.13;;;20.05;77.96
51031;BME280;37058;41.442;23.240;2023-05-16T11:55:08;99824.19;;;20.10;76.86
51031;BME280;37058;41.442;23.240;2023-05-16T11:57:40;99814.09;;;20.14;77.28
51031;BME280;37058;41.442;23.240;2023-05-16T12:00:25;99814.91;;;20.14;76.83
51031;BME280;37058;41.442;23.240;2023-05-16T12:02:53;99808.38;;;20.19;77.61
51031;BME280;37058;41.442;23.240;2023-05-16T12:05:20;99804.25;;;20.25;78.53
51031;BME280;37058;41.442;23.240;2023-05-16T12:07:50;99793.31;;;20.29;77.58
51031;BME280;37058;41.442;23.240;2023-05-16T12:10:19;99794.25;;;20.33;77.14
51031;BME280;37058;41.442;23.240;2023-05-16T12:12:49;99799.16;;;20.36;78.56
51031;BME280;37058;41.442;23.240;2023-05-16T12:15:19;99802.06;;;20.40;77.50
51031;BME280;37058;41.442;23.240;2023-05-16T12:17:46;99809.25;;;20.41;76.65
51031;BME280;37058;41.442;23.240;2023-05-16T12:20:14;99817.56;;;20.41;76.71
51031;BME280;37058;41.442;23.240;2023-05-16T12:22:42;99823.09;;;20.41;77.37
51031;BME280;37058;41.442;23.240;2023-05-16T12:25:28;99829.00;;;20.39;76.95
51031;BME280;37058;41.442;23.240;2023-05-16T12:28:01;99823.09;;;20.41;77.17
51031;BME280;37058;41.442;23.240;2023-05-16T12:30:29;99835.34;;;20.40;77.18
51031;BME280;37058;41.442;23.240;2023-05-16T12:35:30;99843.53;;;20.36;79.60
51031;BME280;37058;41.442;23.240;2023-05-16T12:37:56;99849.28;;;20.31;78.48
51031;BME280;37058;41.442;23.240;2023-05-16T12:40:22;99847.63;;;20.30;78.00
51031;BME280;37058;41.442;23.240;2023-05-16T12:42:50;99864.78;;;20.23;78.23
51031;BME280;37058;41.442;23.240;2023-05-16T12:45:17;99861.03;;;20.19;79.13
51031;BME280;37058;41.442;23.240;2023-05-16T12:47:43;99877.19;;;20.17;78.68
51031;BME280;37058;41.442;23.240;2023-05-16T12:50:10;99883.41;;;20.14;79.42
51031;BME280;37058;41.442;23.240;2023-05-16T12:52:49;99883.41;;;20.14;80.47
51031;BME280;37058;41.442;23.240;2023-05-16T12:55:20;99871.63;;;20.17;84.77
51031;BME280;37058;41.442;23.240;2023-05-16T12:57:48;99866.91;;;20.18;86.17
51031;BME280;37058;41.442;23.240;2023-05-16T13:00:19;99863.19;;;20.13;85.70
51031;BME280;37058;41.442;23.240;2023-05-16T13:02:46;99861.06;;;20.10;86.10
51031;BME280;37058;41.442;23.240;2023-05-16T13:05:13;99855.84;;;20.09;84.93
51031;BME280;37058;41.442;23.240;2023-05-16T13:07:39;99860.41;;;20.05;85.31
51031;BME280;37058;41.442;23.240;2023-05-16T13:10:10;99859.78;;;19.99;85.31
51031;BME280;37058;41.442;23.240;2023-05-16T13:12:40;99875.59;;;19.99;84.91
51031;BME280;37058;41.442;23.240;2023-05-16T13:15:07;99875.59;;;19.99;84.04
51031;BME280;37058;41.442;23.240;2023-05-16T13:17:35;99892.53;;;19.97;84.73
51031;BME280;37058;41.442;23.240;2023-05-16T13:20:06;99905.91;;;19.95;84.82
51031;BME280;37058;41.442;23.240;2023-05-16T13:22:38;99919.63;;;19.91;85.34
51031;BME280;37058;41.442;23.240;2023-05-16T13:25:05;99931.84;;;19.90;86.45
51031;BME280;37058;41.442;23.240;2023-05-16T13:27:31;99929.41;;;19.89;86.86
51031;BME280;37058;41.442;23.240;2023-05-16T13:29:58;99934.94;;;19.89;87.63